Stations météo

réclame
Mon MeteoGroup
Ripoll, Espagne (8118): Température de l'air & dewpoint: 19.04.2018 14:00:00 - 25.04.2018 14:00:00 (CEST)Ripoll, Espagne (8118): Vitesse du vent & gusts: 19.04.2018 14:00:00 - 25.04.2018 14:00:00 (CEST)Ripoll, Espagne (8118): Direction du vent: 19.04.2018 14:00:00 - 25.04.2018 14:00:00 (CEST)Ripoll, Espagne (8118): Quantités de précipitations: 19.04.2018 14:00:00 - 25.04.2018 14:00:00 (CEST)
Date & Time tt [°C] td [°C] ff [km/h] ff [knt] fx [km/h] fx [knt] dd rr [mm]
25.04.2018 14:00:00 - - - - - - - -
25.04.2018 13:00:00 25,5 9,7 13 7 22 12 S 0,0
25.04.2018 12:00:00 23,4 10,4 1 1 8 4 S 0,0
25.04.2018 11:00:00 20,1 12,6 1 0 6 4 S 0,0
25.04.2018 10:00:00 15,8 12,3 3 1 11 6 N 0,0
25.04.2018 09:00:00 11,5 10,5 4 2 9 5 NNW 0,0
25.04.2018 08:00:00 9,6 8,8 0 0 11 6 N -
25.04.2018 07:00:00 9,1 8,4 3 1 9 5 N 0,0
25.04.2018 06:00:00 9,6 8,7 2 1 11 6 N 0,0
25.04.2018 05:00:00 10,0 9,0 3 1 10 5 NNW 0,0
25.04.2018 04:00:00 10,4 9,3 3 2 9 5 N 0,0
25.04.2018 03:00:00 10,8 9,4 0 0 7 4 NNE 0,0
25.04.2018 02:00:00 11,6 9,8 1 1 5 3 N -
25.04.2018 01:00:00 12,4 10,2 0 0 4 2 NNE 0,0
25.04.2018 00:00:00 13,4 10,5 0 0 3 2 N 0,0
24.04.2018 23:00:00 14,6 10,6 0 0 4 2 NNE 0,0
24.04.2018 22:00:00 16,2 10,9 0 0 7 4 E 0,0
24.04.2018 21:00:00 18,4 11,0 4 2 16 8 NE 0,0
24.04.2018 20:00:00 20,7 11,3 8 4 23 12 ENE -
24.04.2018 19:00:00 21,7 11,7 7 4 21 12 ENE 0,0
24.04.2018 18:00:00 23,5 11,6 8 4 19 10 NE 0,0
24.04.2018 17:00:00 25,5 11,2 8 5 21 12 S 0,0
24.04.2018 16:00:00 25,0 10,9 11 6 25 13 S 0,0
24.04.2018 15:00:00 24,5 11,4 8 5 22 12 SSE 0,0
24.04.2018 14:00:00 23,6 11,0 11 6 23 13 S -
24.04.2018 13:00:00 23,1 11,2 9 5 29 16 S 0,0
24.04.2018 12:00:00 21,9 11,0 5 3 16 9 S 0,0
24.04.2018 11:00:00 18,9 11,2 4 2 13 7 SSE 0,0
24.04.2018 10:00:00 14,2 10,6 1 0 6 3 S 0,0
24.04.2018 09:00:00 10,8 10,3 1 1 7 4 N 0,0
24.04.2018 08:00:00 9,2 8,8 1 0 5 3 N -
24.04.2018 07:00:00 9,0 8,3 3 1 6 4 N 0,0
24.04.2018 06:00:00 9,6 8,7 1 1 5 3 NNE 0,0
24.04.2018 05:00:00 10,3 9,2 1 1 7 4 NNE 0,0
24.04.2018 04:00:00 10,9 9,3 1 1 9 5 NE 0,0
24.04.2018 03:00:00 11,5 9,9 4 2 13 7 NNE 0,0
24.04.2018 02:00:00 12,3 10,8 3 1 9 5 NNE -
24.04.2018 01:00:00 12,5 10,4 0 0 3 2 NE 0,0
24.04.2018 00:00:00 13,6 10,5 0 0 4 2 N 0,0
23.04.2018 23:00:00 15,1 11,4 2 1 5 3 SSE 0,0
23.04.2018 22:00:00 16,2 12,0 1 0 3 2 E 0,0
23.04.2018 21:00:00 17,7 12,3 0 0 11 6 SSW 0,0
23.04.2018 20:00:00 19,5 13,0 7 4 15 8 ENE -
23.04.2018 19:00:00 21,3 13,8 5 3 16 9 ENE 0,0
23.04.2018 18:00:00 22,3 13,1 6 3 13 7 ENE 0,0
23.04.2018 17:00:00 22,8 7,7 1 1 15 8 E 0,0
23.04.2018 16:00:00 23,1 8,0 5 3 14 8 S 0,0
23.04.2018 15:00:00 21,7 7,1 7 4 22 12 S 0,0
23.04.2018 14:00:00 22,4 7,0 6 3 18 10 SSE -
23.04.2018 13:00:00 22,5 6,7 6 3 17 9 S 0,0
23.04.2018 12:00:00 19,7 8,7 1 0 8 4 S 0,0
23.04.2018 11:00:00 16,6 10,4 1 0 4 2 N 0,0
23.04.2018 10:00:00 13,5 10,2 0 0 7 4 E 0,0
23.04.2018 09:00:00 10,8 9,2 1 0 11 6 NE 0,0
23.04.2018 08:00:00 8,6 7,6 1 1 6 3 N -
23.04.2018 07:00:00 8,0 6,7 1 0 4 2 NNE 0,0
23.04.2018 06:00:00 8,3 6,7 0 0 3 2 ESE 0,0
23.04.2018 05:00:00 8,6 6,8 0 0 2 1 SSW 0,0
23.04.2018 04:00:00 9,1 7,0 0 0 2 1 N 0,0
23.04.2018 03:00:00 9,9 7,3 0 0 6 4 N 0,0
23.04.2018 02:00:00 10,6 7,4 2 1 4 2 SSE -
23.04.2018 01:00:00 11,4 7,6 3 2 7 4 SSE 0,0
23.04.2018 00:00:00 12,5 7,6 1 0 10 5 NE 0,0
22.04.2018 23:00:00 14,2 7,4 5 3 12 6 SSE 0,0
22.04.2018 22:00:00 16,2 7,7 1 0 13 7 ESE 0,0
22.04.2018 21:00:00 18,4 8,1 7 4 18 10 S 0,0
22.04.2018 20:00:00 20,3 9,6 5 3 20 11 S -
22.04.2018 19:00:00 21,4 9,3 11 6 20 11 S 0,0
22.04.2018 18:00:00 24,3 9,4 8 4 19 10 S 0,0
22.04.2018 17:00:00 24,2 9,3 11 6 22 12 S 0,0
22.04.2018 16:00:00 23,5 8,4 15 8 26 14 SSE 0,0
22.04.2018 15:00:00 23,8 9,4 9 5 19 10 S 0,0
22.04.2018 14:00:00 22,2 9,0 7 4 23 12 S -
22.04.2018 13:00:00 20,2 8,3 9 5 21 11 S 0,0
22.04.2018 12:00:00 19,9 8,5 6 4 18 10 SSE 0,0
22.04.2018 11:00:00 15,4 10,2 0 0 5 3 E 0,0
22.04.2018 10:00:00 11,6 9,0 0 0 4 2 SSE 0,0
22.04.2018 09:00:00 8,8 7,6 1 1 4 2 SE 0,0
22.04.2018 08:00:00 7,1 6,1 0 0 4 2 SSE -
22.04.2018 07:00:00 6,8 5,6 0 0 3 2 SSE 0,0
22.04.2018 06:00:00 7,2 5,8 2 1 4 2 SSE 0,0
22.04.2018 05:00:00 7,7 6,1 1 1 4 2 SSE 0,0
22.04.2018 04:00:00 8,2 6,7 1 1 3 2 SSE 0,0
22.04.2018 03:00:00 8,4 6,4 0 0 2 1 N 0,0
22.04.2018 02:00:00 8,9 6,5 1 0 4 2 S -
22.04.2018 01:00:00 9,9 6,5 1 0 3 2 ESE 0,0
22.04.2018 00:00:00 11,3 7,4 1 0 6 4 SE 0,0
21.04.2018 23:00:00 12,5 7,4 1 0 6 4 SSW 0,0
21.04.2018 22:00:00 14,5 7,1 1 0 3 2 NNW 0,0
21.04.2018 21:00:00 17,2 6,1 1 0 8 5 SSE 0,0
21.04.2018 20:00:00 20,5 6,1 6 3 22 12 S -
21.04.2018 19:00:00 22,6 6,4 10 5 23 12 SSE 0,0
21.04.2018 18:00:00 23,2 7,3 12 6 36 19 S 0,0
21.04.2018 17:00:00 23,6 7,3 8 4 24 13 S 0,0
21.04.2018 16:00:00 24,0 6,7 7 4 31 17 SSW 0,0
21.04.2018 15:00:00 23,4 7,4 6 3 20 11 SSE 0,0
21.04.2018 14:00:00 22,3 6,8 10 6 19 10 S -
21.04.2018 13:00:00 21,4 8,3 8 5 21 11 S 0,0
21.04.2018 12:00:00 20,0 8,4 8 4 17 9 SSE 0,0
21.04.2018 11:00:00 16,6 9,8 3 1 8 4 SSE 0,0
21.04.2018 10:00:00 12,1 9,3 3 2 7 4 NNE 0,0
21.04.2018 09:00:00 7,7 7,0 1 0 5 3 N 0,0
21.04.2018 08:00:00 6,0 5,3 1 1 7 4 NNE -
21.04.2018 07:00:00 5,9 5,0 0 0 5 3 N 0,0
21.04.2018 06:00:00 6,4 5,5 0 0 10 5 NE 0,0
21.04.2018 05:00:00 7,0 6,1 0 0 8 4 NE 0,0
21.04.2018 04:00:00 7,7 6,5 1 1 6 3 NNW 0,0
21.04.2018 03:00:00 8,4 6,8 0 0 6 4 ESE 0,0
21.04.2018 02:00:00 9,1 7,0 0 0 6 3 N -
21.04.2018 01:00:00 10,1 7,6 0 0 4 2 NNW 0,0
21.04.2018 00:00:00 11,2 7,7 0 0 3 1 ENE 0,0
20.04.2018 23:00:00 12,8 8,1 0 0 3 2 NNE 0,0
20.04.2018 22:00:00 15,3 8,3 0 0 11 6 NE 0,0
20.04.2018 21:00:00 17,6 8,7 4 2 14 7 SE 0,0
20.04.2018 20:00:00 18,7 9,2 6 3 14 7 ENE -
20.04.2018 19:00:00 19,9 8,0 2 1 10 6 SE 0,0
20.04.2018 18:00:00 22,5 8,5 6 4 16 9 SSW 0,0
20.04.2018 17:00:00 21,8 8,7 5 3 14 8 SSW 0,0
20.04.2018 16:00:00 20,8 7,4 6 4 15 8 S 0,0
20.04.2018 15:00:00 22,1 8,3 8 5 18 10 S 0,0
20.04.2018 14:00:00 20,6 7,6 8 4 21 11 S -
20.04.2018 13:00:00 20,7 7,7 9 5 17 9 S 0,0
20.04.2018 12:00:00 19,2 7,0 8 5 13 7 S 0,0
20.04.2018 11:00:00 15,7 8,3 0 0 6 4 SE 0,0
20.04.2018 10:00:00 11,2 7,3 3 1 9 5 N 0,0
20.04.2018 09:00:00 7,1 6,2 3 2 13 7 N 0,0
20.04.2018 08:00:00 4,9 4,1 1 1 8 4 NNE -
20.04.2018 07:00:00 4,7 3,8 2 1 8 4 N 0,0
20.04.2018 06:00:00 5,4 4,5 1 1 9 5 N 0,0
20.04.2018 05:00:00 5,8 4,8 0 0 7 4 NNW 0,0
20.04.2018 04:00:00 6,5 5,1 0 0 5 3 NNE 0,0
20.04.2018 03:00:00 7,3 5,8 0 0 8 4 NE 0,0
20.04.2018 02:00:00 8,1 6,2 2 1 6 3 ENE -
20.04.2018 01:00:00 9,3 6,7 1 1 10 5 N 0,0
20.04.2018 00:00:00 10,4 7,3 1 1 8 4 NNE 0,0
19.04.2018 23:00:00 11,6 7,8 0 0 6 4 WNW 0,0
19.04.2018 22:00:00 13,1 7,6 2 1 6 4 NE 0,0
19.04.2018 21:00:00 15,8 6,8 0 0 11 6 WNW 0,0
19.04.2018 20:00:00 17,5 6,4 4 2 16 9 NNE -
19.04.2018 19:00:00 19,1 7,6 6 3 22 12 NE 0,0
19.04.2018 18:00:00 21,7 8,9 7 4 23 12 NE 0,0
19.04.2018 17:00:00 21,6 8,1 3 2 21 11 SSE 0,0
19.04.2018 16:00:00 21,7 8,5 3 1 21 11 E 0,0
19.04.2018 15:00:00 20,9 8,1 2 1 26 14 E 0,0
19.04.2018 14:00:00 20,9 8,8 4 2 29 16 SSE -

tt = Température de l'air
td = dewpoint
ff = Vitesse du vent
fx = gusts
dd = Direction du vent
rr = Quantités de précipitations

stations d'obs. à proximité